Time;durP1;ratioP1;P1;durP2;ratioP2;P2;SDS_P1;SDS_P2;PMS_P1;PMS_P2;Temp;Humidity;BMP_temperature;BMP_pressure;BME280_temperature;BME280_humidity;BME280_pressure;Samples;Min_cycle;Max_cycle;Signal;HPM_P1;HPM_P2
2022/04/25 00:00:29;;;;;;;15.70;11.27;;;;;;;;;;7369502;19;20010;-77
2022/04/25 00:02:55;;;;;;;16.48;11.23;;;;;;;;;;7372567;19;20015;-76
2022/04/25 00:05:20;;;;;;;16.40;11.10;;;;;;;;;;7374476;19;20003;-78
2022/04/25 00:07:45;;;;;;;15.10;10.55;;;;;;;;;;7375518;19;20721;-77
2022/04/25 00:10:11;;;;;;;18.30;12.13;;;;;;;;;;7376584;19;20023;-77
2022/04/25 00:12:36;;;;;;;16.10;11.15;;;;;;;;;;7377720;19;20278;-77
2022/04/25 00:15:01;;;;;;;17.63;12.38;;;;;;;;;;7374717;19;19994;-77
2022/04/25 00:17:27;;;;;;;16.70;11.80;;;;;;;;;;7357506;19;20037;-77
2022/04/25 00:19:52;;;;;;;17.38;12.38;;;;;;;;;;7354283;19;20319;-77
2022/04/25 00:22:17;;;;;;;16.97;11.53;;;;;;;;;;7362443;19;20036;-76
2022/04/25 00:24:44;;;;;;;22.48;11.95;;;;;;;;;;7357086;19;20251;-77
2022/04/25 00:27:09;;;;;;;16.55;10.55;;;;;;;;;;7372212;19;20455;-77
2022/04/25 00:29:35;;;;;;;17.75;11.57;;;;;;;;;;7377831;19;20006;-76
2022/04/25 00:32:00;;;;;;;16.58;12.43;;;;;;;;;;7375870;19;20014;-77
2022/04/25 00:34:25;;;;;;;17.20;11.82;;;;;;;;;;7377755;19;20404;-76
2022/04/25 00:36:50;;;;;;;16.60;12.20;;;;;;;;;;7372531;19;20077;-76
2022/04/25 00:39:15;;;;;;;22.00;13.25;;;;;;;;;;7378876;19;20247;-76
2022/04/25 00:41:42;;;;;;;16.20;12.00;;;;;;;;;;7371980;19;20512;-77
2022/04/25 00:44:07;;;;;;;16.52;12.18;;;;;;;;;;7371354;19;20806;-76
2022/04/25 00:46:35;;;;;;;19.80;12.52;;;;;;;;;;7313377;19;20010;-76
2022/04/25 00:49:00;;;;;;;18.25;12.13;;;;;;;;;;7375286;19;19998;-76
2022/04/25 00:51:26;;;;;;;19.90;13.87;;;;;;;;;;7367707;19;20043;-77
2022/04/25 00:53:52;;;;;;;21.45;14.55;;;;;;;;;;7362345;19;20243;-76
2022/04/25 00:56:17;;;;;;;19.42;13.70;;;;;;;;;;7351985;19;20002;-76
2022/04/25 00:58:46;;;;;;;20.98;13.88;;;;;;;;;;7357136;19;20351;-77
2022/04/25 01:01:12;;;;;;;20.13;14.02;;;;;;;;;;7354056;19;19999;-77
2022/04/25 01:03:37;;;;;;;19.45;12.95;;;;;;;;;;7364742;19;20066;-77
2022/04/25 01:06:02;;;;;;;18.93;13.20;;;;;;;;;;7361303;19;19991;-76
2022/04/25 01:08:27;;;;;;;20.20;12.73;;;;;;;;;;7358238;19;20342;-76
2022/04/25 01:10:52;;;;;;;21.97;14.37;;;;;;;;;;7355807;19;20886;-76
2022/04/25 01:13:18;;;;;;;19.35;13.13;;;;;;;;;;7358184;19;20255;-76
2022/04/25 01:15:43;;;;;;;19.50;13.85;;;;;;;;;;7348098;19;20603;-76
2022/04/25 01:18:08;;;;;;;19.95;13.13;;;;;;;;;;7361897;19;20010;-76
2022/04/25 01:20:33;;;;;;;17.48;12.65;;;;;;;;;;7353444;19;20018;-76
2022/04/25 01:28:33;;;;;;;17.67;12.13;;;;;;;;;;7365702;19;20013;-76
2022/04/25 01:30:58;;;;;;;22.48;14.20;;;;;;;;;;7360255;19;20323;-76
2022/04/25 01:33:23;;;;;;;20.70;13.93;;;;;;;;;;7366590;19;20034;-76
2022/04/25 01:35:49;;;;;;;20.90;14.95;;;;;;;;;;7365578;19;20442;-76
2022/04/25 01:38:14;;;;;;;21.27;14.07;;;;;;;;;;7347989;19;20316;-76
2022/04/25 01:40:39;;;;;;;19.23;13.50;;;;;;;;;;7357895;19;20036;-76
2022/04/25 01:43:04;;;;;;;17.60;12.30;;;;;;;;;;7366552;19;20564;-77
2022/04/25 01:45:29;;;;;;;18.90;12.68;;;;;;;;;;7355187;19;20009;-76
2022/04/25 01:47:55;;;;;;;19.00;13.10;;;;;;;;;;7363286;19;20279;-76
2022/04/25 01:50:20;;;;;;;18.97;12.43;;;;;;;;;;7363204;19;19995;-76
2022/04/25 01:52:45;;;;;;;18.17;13.40;;;;;;;;;;7365756;19;20254;-76
2022/04/25 01:55:10;;;;;;;20.70;14.02;;;;;;;;;;7356797;19;20673;-76
2022/04/25 01:57:36;;;;;;;20.63;14.43;;;;;;;;;;7361067;19;20568;-76
2022/04/25 02:00:01;;;;;;;21.07;14.40;;;;;;;;;;7363229;19;20002;-76
2022/04/25 02:02:26;;;;;;;21.58;13.73;;;;;;;;;;7357801;19;20259;-76
2022/04/25 02:04:51;;;;;;;17.60;12.35;;;;;;;;;;7364371;19;19998;-76
2022/04/25 02:07:17;;;;;;;19.88;13.68;;;;;;;;;;7365372;19;20018;-75
2022/04/25 02:09:42;;;;;;;20.10;13.50;;;;;;;;;;7359182;19;19998;-76
2022/04/25 02:12:08;;;;;;;20.50;13.98;;;;;;;;;;7370056;19;20010;-75
2022/04/25 02:14:33;;;;;;;18.70;12.90;;;;;;;;;;7368681;19;20042;-75
2022/04/25 02:17:01;;;;;;;19.35;12.13;;;;;;;;;;7351100;19;20394;-75
2022/04/25 02:19:27;;;;;;;19.58;13.70;;;;;;;;;;7373039;19;20015;-76
2022/04/25 02:21:52;;;;;;;19.95;13.57;;;;;;;;;;7381007;19;20324;-75
2022/04/25 02:24:18;;;;;;;18.77;12.85;;;;;;;;;;7376991;19;20679;-76
2022/04/25 02:26:43;;;;;;;19.33;12.95;;;;;;;;;;7372277;19;20046;-75
2022/04/25 02:29:08;;;;;;;18.98;13.43;;;;;;;;;;7366258;19;20003;-75
2022/04/25 02:31:34;;;;;;;18.63;12.90;;;;;;;;;;7355339;19;20301;-75
2022/04/25 02:33:59;;;;;;;22.10;14.83;;;;;;;;;;7356915;19;20486;-76
2022/04/25 02:36:24;;;;;;;23.20;16.60;;;;;;;;;;7360823;19;20304;-75
2022/04/25 02:38:49;;;;;;;20.13;13.53;;;;;;;;;;7353574;19;20414;-76
2022/04/25 02:41:15;;;;;;;22.25;15.23;;;;;;;;;;7364202;19;20247;-76
2022/04/25 02:43:41;;;;;;;17.70;13.07;;;;;;;;;;7362609;19;20014;-76
2022/04/25 02:46:08;;;;;;;20.92;14.10;;;;;;;;;;7333069;19;21074;-76
2022/04/25 02:48:34;;;;;;;21.58;13.30;;;;;;;;;;7372196;19;20028;-76
2022/04/25 02:50:59;;;;;;;21.98;14.13;;;;;;;;;;7380264;19;20021;-75
2022/04/25 02:53:25;;;;;;;19.23;13.77;;;;;;;;;;7379900;19;20085;-76
2022/04/25 02:55:51;;;;;;;21.35;13.50;;;;;;;;;;7345163;19;20002;-76
2022/04/25 02:58:17;;;;;;;18.40;13.20;;;;;;;;;;7375085;19;20014;-76
2022/04/25 03:00:42;;;;;;;20.92;13.43;;;;;;;;;;7359516;19;20840;-76
2022/04/25 03:03:07;;;;;;;23.75;14.80;;;;;;;;;;7362138;19;20085;-76
2022/04/25 03:05:32;;;;;;;22.92;14.50;;;;;;;;;;7365063;19;20588;-77
2022/04/25 03:07:58;;;;;;;24.15;14.68;;;;;;;;;;7361135;19;20107;-76
2022/04/25 03:10:23;;;;;;;24.75;16.60;;;;;;;;;;7360908;19;20035;-76
2022/04/25 03:12:48;;;;;;;27.27;17.73;;;;;;;;;;7364024;19;20010;-76
2022/04/25 03:15:13;;;;;;;27.75;18.55;;;;;;;;;;7376733;19;19999;-76
2022/04/25 03:17:38;;;;;;;26.60;18.23;;;;;;;;;;7372641;19;20247;-76
2022/04/25 03:20:04;;;;;;;33.83;21.63;;;;;;;;;;7373244;19;20231;-77
2022/04/25 03:22:29;;;;;;;35.55;22.30;;;;;;;;;;7374852;19;20252;-76
2022/04/25 03:24:55;;;;;;;34.38;21.30;;;;;;;;;;7373362;19;20125;-76
2022/04/25 03:27:20;;;;;;;34.80;22.85;;;;;;;;;;7369398;19;20018;-75
2022/04/25 03:29:45;;;;;;;34.97;24.27;;;;;;;;;;7374534;19;20335;-76
2022/04/25 03:32:10;;;;;;;36.15;22.95;;;;;;;;;;7369506;19;20327;-76
2022/04/25 03:34:37;;;;;;;36.75;23.23;;;;;;;;;;7360238;19;20025;-76
2022/04/25 03:37:02;;;;;;;35.83;22.85;;;;;;;;;;7359505;19;20011;-76
2022/04/25 03:39:29;;;;;;;35.83;22.50;;;;;;;;;;7360370;19;20364;-75
2022/04/25 03:41:54;;;;;;;33.47;21.95;;;;;;;;;;7361482;19;20474;-76
2022/04/25 03:44:19;;;;;;;33.25;21.70;;;;;;;;;;7356873;19;20034;-76
2022/04/25 03:46:44;;;;;;;35.63;22.40;;;;;;;;;;7359627;19;20030;-76
2022/04/25 03:49:09;;;;;;;34.65;22.27;;;;;;;;;;7359281;19;20264;-77
2022/04/25 03:51:35;;;;;;;37.08;22.95;;;;;;;;;;7363319;19;20490;-76
2022/04/25 03:54:00;;;;;;;35.53;23.60;;;;;;;;;;7361579;19;20519;-76
2022/04/25 03:59:08;;;;;;;33.28;21.38;;;;;;;;;;7373459;19;20693;-77
2022/04/25 04:01:35;;;;;;;32.67;22.33;;;;;;;;;;7371751;19;20011;-77
2022/04/25 04:04:04;;;;;;;33.95;22.60;;;;;;;;;;7379307;19;21203;-77
2022/04/25 04:06:30;;;;;;;31.70;20.85;;;;;;;;;;7376931;19;20027;-76
2022/04/25 04:08:55;;;;;;;33.28;21.55;;;;;;;;;;7371955;19;20007;-76
2022/04/25 04:11:20;;;;;;;31.42;21.65;;;;;;;;;;7359450;19;20019;-77
2022/04/25 04:13:47;;;;;;;33.13;21.47;;;;;;;;;;7350991;19;20027;-76
2022/04/25 04:16:12;;;;;;;30.73;20.67;;;;;;;;;;7352181;19;20240;-76
2022/04/25 04:18:40;;;;;;;31.60;21.85;;;;;;;;;;7360439;19;20010;-76
2022/04/25 04:21:06;;;;;;;31.10;21.42;;;;;;;;;;7359076;19;20014;-76
2022/04/25 04:23:31;;;;;;;33.97;20.25;;;;;;;;;;7361690;19;20503;-76
2022/04/25 04:25:56;;;;;;;28.92;20.15;;;;;;;;;;7351828;19;20006;-76
2022/04/25 04:28:21;;;;;;;30.27;21.60;;;;;;;;;;7366144;19;20037;-76
2022/04/25 04:30:46;;;;;;;29.52;18.67;;;;;;;;;;7348918;19;20255;-76
2022/04/25 04:33:12;;;;;;;32.50;20.08;;;;;;;;;;7362563;19;19999;-75
2022/04/25 04:38:21;;;;;;;27.50;18.92;;;;;;;;;;7365330;19;20035;-75
2022/04/25 04:40:46;;;;;;;27.65;19.15;;;;;;;;;;7346751;19;20019;-76
2022/04/25 04:43:11;;;;;;;31.35;21.65;;;;;;;;;;7356782;19;20281;-76
2022/04/25 04:45:37;;;;;;;32.23;20.20;;;;;;;;;;7353707;19;20037;-76
2022/04/25 04:48:02;;;;;;;28.02;19.73;;;;;;;;;;7371629;19;20236;-76
2022/04/25 04:50:28;;;;;;;28.30;19.25;;;;;;;;;;7369698;19;20445;-76
2022/04/25 04:52:58;;;;;;;29.15;20.45;;;;;;;;;;7376449;19;20015;-76
2022/04/25 04:55:23;;;;;;;28.30;20.23;;;;;;;;;;7370952;19;19998;-76
2022/04/25 04:57:48;;;;;;;27.60;20.70;;;;;;;;;;7382487;19;20473;-77
2022/04/25 05:00:15;;;;;;;31.17;21.03;;;;;;;;;;7377930;19;20007;-76
2022/04/25 05:02:40;;;;;;;30.20;21.70;;;;;;;;;;7380388;19;20922;-76
2022/04/25 05:05:06;;;;;;;31.52;21.73;;;;;;;;;;7381449;19;19991;-76
2022/04/25 05:07:31;;;;;;;27.90;20.35;;;;;;;;;;7388002;19;20027;-77
2022/04/25 05:09:56;;;;;;;33.88;25.30;;;;;;;;;;7385198;19;20634;-77
2022/04/25 05:12:22;;;;;;;33.00;23.00;;;;;;;;;;7377865;19;20007;-77
2022/04/25 05:14:47;;;;;;;31.52;22.73;;;;;;;;;;7377808;19;20009;-76
2022/04/25 05:17:12;;;;;;;33.28;23.10;;;;;;;;;;7375511;19;20106;-77
2022/04/25 05:19:37;;;;;;;32.15;23.95;;;;;;;;;;7381441;19;20600;-76
2022/04/25 05:22:03;;;;;;;30.48;21.95;;;;;;;;;;7382033;19;20320;-75
2022/04/25 05:24:28;;;;;;;35.45;23.08;;;;;;;;;;7370880;19;20032;-75
2022/04/25 05:26:53;;;;;;;29.58;21.52;;;;;;;;;;7365202;19;20026;-76
2022/04/25 05:29:18;;;;;;;28.27;19.93;;;;;;;;;;7371789;19;20038;-75
2022/04/25 05:31:44;;;;;;;27.33;20.03;;;;;;;;;;7368927;19;20247;-76
2022/04/25 05:34:09;;;;;;;28.08;19.95;;;;;;;;;;7369065;19;20247;-76
2022/04/25 05:36:35;;;;;;;26.38;19.35;;;;;;;;;;7354692;19;20416;-76
2022/04/25 05:39:00;;;;;;;25.35;17.83;;;;;;;;;;7351283;19;20810;-75
2022/04/25 05:41:25;;;;;;;24.70;17.98;;;;;;;;;;7360804;19;20002;-76
2022/04/25 05:43:50;;;;;;;22.45;17.05;;;;;;;;;;7362263;19;20017;-77
2022/04/25 05:46:16;;;;;;;23.83;16.58;;;;;;;;;;7362555;19;20002;-77
2022/04/25 05:54:09;;;;;;;22.05;13.88;;;;;;;;;;7368660;19;20508;-76
2022/04/25 05:56:34;;;;;;;22.20;14.77;;;;;;;;;;7362355;19;20097;-77
2022/04/25 05:58:59;;;;;;;19.98;14.20;;;;;;;;;;7364292;19;20494;-77
2022/04/25 06:01:24;;;;;;;18.47;14.03;;;;;;;;;;7363095;19;20003;-77
2022/04/25 06:03:50;;;;;;;19.97;14.47;;;;;;;;;;7368962;19;20635;-78
2022/04/25 06:06:17;;;;;;;22.67;14.95;;;;;;;;;;7369326;19;20259;-78
2022/04/25 06:08:43;;;;;;;20.17;14.07;;;;;;;;;;7357193;19;20017;-77
2022/04/25 06:11:08;;;;;;;17.43;12.53;;;;;;;;;;7353201;19;20408;-78
2022/04/25 06:13:33;;;;;;;20.63;14.45;;;;;;;;;;7375215;19;20267;-77
2022/04/25 06:15:58;;;;;;;17.73;12.70;;;;;;;;;;7340705;19;20026;-78
2022/04/25 06:18:23;;;;;;;18.90;13.00;;;;;;;;;;7351391;19;20227;-77
2022/04/25 06:20:50;;;;;;;18.60;13.43;;;;;;;;;;7355481;19;20761;-76
2022/04/25 06:23:15;;;;;;;16.60;12.32;;;;;;;;;;7375149;19;20648;-76
2022/04/25 06:25:40;;;;;;;19.42;11.60;;;;;;;;;;7347218;19;20801;-76
2022/04/25 06:28:05;;;;;;;18.03;12.23;;;;;;;;;;7354835;19;20010;-78
2022/04/25 06:30:31;;;;;;;17.23;12.27;;;;;;;;;;7353657;19;20255;-80
2022/04/25 06:32:57;;;;;;;17.45;12.57;;;;;;;;;;7355352;19;20018;-78
2022/04/25 06:35:23;;;;;;;18.75;12.45;;;;;;;;;;7360248;19;20013;-77
2022/04/25 06:37:48;;;;;;;17.90;12.20;;;;;;;;;;7375034;19;20010;-76
2022/04/25 06:40:13;;;;;;;15.98;11.38;;;;;;;;;;7368193;19;20010;-79
2022/04/25 06:42:39;;;;;;;15.70;10.38;;;;;;;;;;7362076;19;20002;-76
2022/04/25 06:45:05;;;;;;;14.18;9.80;;;;;;;;;;7363112;19;20010;-76
2022/04/25 06:47:30;;;;;;;13.52;9.82;;;;;;;;;;7353941;19;19999;-77
2022/04/25 06:49:55;;;;;;;15.32;10.27;;;;;;;;;;7359280;19;20025;-77
2022/04/25 06:52:23;;;;;;;14.90;9.80;;;;;;;;;;7378969;19;20482;-76
2022/04/25 06:54:49;;;;;;;15.00;9.90;;;;;;;;;;7376739;19;20243;-77
2022/04/25 06:57:14;;;;;;;15.35;9.40;;;;;;;;;;7380189;19;20030;-76
2022/04/25 06:59:39;;;;;;;13.00;8.73;;;;;;;;;;7381129;19;20011;-77
2022/04/25 07:02:05;;;;;;;13.90;8.50;;;;;;;;;;7378525;19;20021;-77
2022/04/25 07:04:30;;;;;;;13.30;8.25;;;;;;;;;;7380251;19;20025;-76
2022/04/25 07:06:55;;;;;;;11.55;7.57;;;;;;;;;;7373926;19;20406;-80
2022/04/25 07:09:20;;;;;;;13.17;8.10;;;;;;;;;;7369925;19;20003;-78
2022/04/25 07:11:46;;;;;;;11.63;7.93;;;;;;;;;;7361030;19;20255;-76
2022/04/25 07:14:12;;;;;;;10.88;6.68;;;;;;;;;;7358850;19;20273;-79
2022/04/25 07:16:37;;;;;;;11.07;7.22;;;;;;;;;;7353735;19;20010;-76
2022/04/25 07:19:02;;;;;;;10.40;6.75;;;;;;;;;;7359004;19;20371;-76
2022/04/25 07:29:41;;;;;;;11.60;6.25;;;;;;;;;;7360440;19;20025;-76
2022/04/25 07:32:06;;;;;;;11.55;6.47;;;;;;;;;;7359433;19;20280;-78
2022/04/25 07:34:32;;;;;;;8.60;4.82;;;;;;;;;;7362813;19;20010;-76
2022/04/25 07:36:57;;;;;;;8.53;5.40;;;;;;;;;;7361149;19;20002;-76
2022/04/25 07:39:22;;;;;;;7.85;4.70;;;;;;;;;;7360692;19;20247;-77
2022/04/25 07:41:48;;;;;;;7.63;4.72;;;;;;;;;;7354455;19;20015;-75
2022/04/25 07:44:13;;;;;;;9.02;4.63;;;;;;;;;;7365491;19;20018;-77
2022/04/25 07:46:42;;;;;;;8.75;5.05;;;;;;;;;;7352630;19;20275;-77
2022/04/25 07:49:07;;;;;;;7.63;4.50;;;;;;;;;;7356711;19;20424;-78
2022/04/25 07:51:33;;;;;;;8.00;4.38;;;;;;;;;;7358725;19;20459;-76
2022/04/25 07:53:58;;;;;;;6.70;3.88;;;;;;;;;;7368215;19;19994;-78
2022/04/25 07:56:24;;;;;;;7.35;4.65;;;;;;;;;;7355278;19;20449;-78
2022/04/25 07:58:49;;;;;;;8.32;4.78;;;;;;;;;;7366376;19;20267;-77
2022/04/25 08:01:14;;;;;;;8.30;4.93;;;;;;;;;;7356403;19;20026;-77
2022/04/25 08:03:39;;;;;;;8.00;4.93;;;;;;;;;;7360062;19;20256;-77
2022/04/25 08:06:05;;;;;;;7.75;4.90;;;;;;;;;;7353742;19;20014;-77
2022/04/25 08:08:31;;;;;;;8.73;5.57;;;;;;;;;;7359637;19;20334;-77
2022/04/25 08:10:56;;;;;;;8.35;5.15;;;;;;;;;;7356283;19;20007;-76
2022/04/25 08:18:51;;;;;;;7.32;4.63;;;;;;;;;;7358083;19;20037;-77
2022/04/25 08:21:16;;;;;;;7.68;5.05;;;;;;;;;;7360887;19;20017;-76
2022/04/25 08:23:45;;;;;;;8.82;4.90;;;;;;;;;;7365691;19;20430;-76
2022/04/25 08:26:10;;;;;;;7.93;4.68;;;;;;;;;;7355444;19;20012;-77
2022/04/25 08:28:35;;;;;;;9.80;5.00;;;;;;;;;;7357008;19;20006;-76
2022/04/25 08:31:01;;;;;;;7.95;4.68;;;;;;;;;;7358647;19;20615;-78
2022/04/25 08:33:26;;;;;;;8.27;4.93;;;;;;;;;;7365477;19;20040;-77
2022/04/25 08:35:52;;;;;;;7.97;5.20;;;;;;;;;;7364193;19;20011;-76
2022/04/25 08:38:17;;;;;;;7.05;4.65;;;;;;;;;;7385637;19;20050;-76
2022/04/25 08:40:44;;;;;;;8.07;5.05;;;;;;;;;;7384485;19;20054;-77
2022/04/25 08:43:09;;;;;;;9.40;4.95;;;;;;;;;;7390634;19;20015;-77
2022/04/25 08:45:36;;;;;;;9.52;5.22;;;;;;;;;;7386204;19;20039;-76
2022/04/25 08:48:03;;;;;;;8.05;5.15;;;;;;;;;;7389270;19;20006;-77
2022/04/25 08:50:28;;;;;;;11.05;4.70;;;;;;;;;;7388295;19;20014;-77
2022/04/25 08:52:54;;;;;;;6.57;4.05;;;;;;;;;;7385237;19;20017;-76
2022/04/25 08:55:20;;;;;;;7.50;4.30;;;;;;;;;;7385400;19;20494;-75
2022/04/25 08:57:47;;;;;;;8.20;4.68;;;;;;;;;;7385187;19;20018;-79
2022/04/25 09:00:13;;;;;;;7.55;3.90;;;;;;;;;;7387809;19;19998;-77
2022/04/25 09:02:41;;;;;;;9.98;4.80;;;;;;;;;;7378800;19;20007;-77
2022/04/25 09:05:09;;;;;;;6.25;4.15;;;;;;;;;;7379209;19;20002;-79
2022/04/25 09:07:37;;;;;;;7.90;4.70;;;;;;;;;;7376721;19;20482;-77
2022/04/25 09:10:03;;;;;;;6.60;4.03;;;;;;;;;;7382397;19;19994;-78
2022/04/25 09:12:28;;;;;;;7.85;4.65;;;;;;;;;;7386169;19;20474;-78
2022/04/25 09:14:56;;;;;;;8.48;5.03;;;;;;;;;;7388627;19;20549;-77
2022/04/25 09:17:21;;;;;;;8.43;4.50;;;;;;;;;;7381012;19;20052;-77
2022/04/25 09:19:47;;;;;;;9.37;4.40;;;;;;;;;;7387664;19;19999;-76
2022/04/25 09:22:12;;;;;;;7.50;4.55;;;;;;;;;;7391038;19;20864;-76
2022/04/25 09:24:44;;;;;;;8.55;4.35;;;;;;;;;;7384737;19;20461;-76
2022/04/25 09:27:11;;;;;;;8.00;4.07;;;;;;;;;;7385628;19;20015;-76
2022/04/25 09:29:37;;;;;;;8.27;3.80;;;;;;;;;;7381315;19;20454;-78
2022/04/25 09:32:03;;;;;;;8.70;4.10;;;;;;;;;;7375340;19;20014;-77
2022/04/25 09:37:13;;;;;;;8.18;4.20;;;;;;;;;;7383036;19;20092;-76
2022/04/25 09:39:39;;;;;;;7.22;4.30;;;;;;;;;;7381258;19;20038;-77
2022/04/25 09:42:04;;;;;;;8.48;4.50;;;;;;;;;;7382575;19;20089;-77
2022/04/25 09:44:49;;;;;;;7.00;4.40;;;;;;;;;;7388527;19;20058;-78
2022/04/25 09:47:24;;;;;;;10.30;4.65;;;;;;;;;;7379742;19;20007;-77
2022/04/25 09:49:57;;;;;;;7.15;4.00;;;;;;;;;;7388516;19;20011;-76
2022/04/25 09:52:22;;;;;;;7.40;4.38;;;;;;;;;;7385141;19;20029;-77
2022/04/25 09:54:47;;;;;;;6.90;4.00;;;;;;;;;;7381241;19;20003;-79
2022/04/25 09:57:27;;;;;;;7.70;4.00;;;;;;;;;;7381576;19;20011;-76
2022/04/25 09:59:52;;;;;;;6.90;3.85;;;;;;;;;;7389207;19;20010;-76
2022/04/25 10:02:20;;;;;;;6.50;3.78;;;;;;;;;;7379050;19;20014;-78
2022/04/25 10:04:46;;;;;;;6.25;3.88;;;;;;;;;;7374212;19;20550;-77
2022/04/25 10:07:11;;;;;;;8.00;3.88;;;;;;;;;;7369831;19;20006;-78
2022/04/25 10:09:36;;;;;;;6.22;3.67;;;;;;;;;;7358681;19;20368;-78
2022/04/25 10:12:02;;;;;;;5.70;3.30;;;;;;;;;;7364806;19;20005;-76
2022/04/25 10:14:28;;;;;;;8.13;4.47;;;;;;;;;;7358857;19;20266;-78
2022/04/25 10:16:57;;;;;;;6.50;3.85;;;;;;;;;;7354411;19;20006;-77
2022/04/25 10:19:23;;;;;;;6.75;3.75;;;;;;;;;;7361828;19;20094;-78
2022/04/25 10:21:50;;;;;;;7.28;3.15;;;;;;;;;;7362242;19;20439;-77
2022/04/25 10:24:18;;;;;;;7.75;4.00;;;;;;;;;;7361831;19;20011;-78
2022/04/25 10:26:43;;;;;;;10.02;3.92;;;;;;;;;;7359029;19;20101;-77
2022/04/25 10:29:10;;;;;;;7.60;3.92;;;;;;;;;;7367793;19;20036;-77
2022/04/25 10:31:41;;;;;;;7.38;4.30;;;;;;;;;;7353200;19;20014;-78
2022/04/25 10:34:07;;;;;;;8.30;4.30;;;;;;;;;;7359842;19;20564;-79
2022/04/25 10:36:38;;;;;;;6.40;3.60;;;;;;;;;;7360932;19;20509;-78
2022/04/25 10:39:11;;;;;;;6.75;3.72;;;;;;;;;;7359225;19;20014;-77
2022/04/25 10:44:20;;;;;;;7.13;3.85;;;;;;;;;;7367522;19;20488;-78
2022/04/25 10:47:03;;;;;;;7.37;4.13;;;;;;;;;;7354858;19;20007;-79
2022/04/25 10:49:33;;;;;;;10.57;3.83;;;;;;;;;;7359586;19;20239;-80
2022/04/25 10:51:58;;;;;;;7.13;3.22;;;;;;;;;;7370271;19;20033;-78
2022/04/25 10:54:27;;;;;;;6.85;3.90;;;;;;;;;;7357811;19;20002;-79
2022/04/25 10:57:07;;;;;;;7.78;3.90;;;;;;;;;;7365626;19;20011;-77
2022/04/25 10:59:33;;;;;;;7.57;3.80;;;;;;;;;;7348423;19;20016;-79
2022/04/25 11:01:58;;;;;;;8.35;3.80;;;;;;;;;;7349835;19;20022;-77
2022/04/25 11:04:24;;;;;;;6.85;3.83;;;;;;;;;;7357905;19;20078;-79
2022/04/25 11:07:08;;;;;;;7.53;3.80;;;;;;;;;;7351133;19;20659;-77
2022/04/25 11:09:40;;;;;;;6.47;4.00;;;;;;;;;;7332977;19;20002;-77
2022/04/25 11:12:06;;;;;;;10.73;4.90;;;;;;;;;;7339036;19;20297;-77
2022/04/25 11:14:31;;;;;;;8.07;4.90;;;;;;;;;;7349127;19;20737;-77
2022/04/25 11:17:13;;;;;;;10.73;4.63;;;;;;;;;;7351253;19;20011;-78
2022/04/25 11:19:45;;;;;;;8.70;4.35;;;;;;;;;;7352756;19;20018;-78
2022/04/25 11:22:27;;;;;;;6.95;4.15;;;;;;;;;;7358702;19;20038;-78
2022/04/25 11:24:52;;;;;;;8.23;4.55;;;;;;;;;;7356152;19;20013;-77
2022/04/25 11:27:20;;;;;;;8.50;4.67;;;;;;;;;;7361191;19;20074;-77
